sensor_id;sensor_type;location;lat;lon;timestamp;temperature;humidity
79140;HTU21D;68546;59.142;37.948;2023-03-31T06:28:31;2.68;60.27
79140;HTU21D;68546;59.142;37.948;2023-03-31T06:31:03;2.68;59.82
79140;HTU21D;68546;59.142;37.948;2023-03-31T06:33:31;2.70;59.96
79140;HTU21D;68546;59.142;37.948;2023-03-31T06:35:58;2.72;59.87
79140;HTU21D;68546;59.142;37.948;2023-03-31T06:38:27;2.74;59.64
79140;HTU21D;68546;59.142;37.948;2023-03-31T06:40:53;2.76;58.90
79140;HTU21D;68546;59.142;37.948;2023-03-31T06:43:21;2.78;59.04
79140;HTU21D;68546;59.142;37.948;2023-03-31T06:45:48;2.80;59.24
79140;HTU21D;68546;59.142;37.948;2023-03-31T06:48:14;2.83;59.44
79140;HTU21D;68546;59.142;37.948;2023-03-31T06:51:06;2.88;59.56
79140;HTU21D;68546;59.142;37.948;2023-03-31T06:53:33;2.94;59.49
79140;HTU21D;68546;59.142;37.948;2023-03-31T06:56:00;2.97;59.54
79140;HTU21D;68546;59.142;37.948;2023-03-31T06:58:26;3.01;59.44
79140;HTU21D;68546;59.142;37.948;2023-03-31T07:00:52;3.05;59.41
79140;HTU21D;68546;59.142;37.948;2023-03-31T07:03:19;3.11;59.32
79140;HTU21D;68546;59.142;37.948;2023-03-31T07:05:54;3.16;59.10
79140;HTU21D;68546;59.142;37.948;2023-03-31T07:08:21;3.20;59.10
79140;HTU21D;68546;59.142;37.948;2023-03-31T07:10:49;3.24;58.92
79140;HTU21D;68546;59.142;37.948;2023-03-31T07:13:18;3.29;58.83
79140;HTU21D;68546;59.142;37.948;2023-03-31T07:15:47;3.34;58.53
79140;HTU21D;68546;59.142;37.948;2023-03-31T07:18:15;3.36;57.91
79140;HTU21D;68546;59.142;37.948;2023-03-31T07:20:42;3.41;57.93
79140;HTU21D;68546;59.142;37.948;2023-03-31T07:23:09;3.43;57.98
79140;HTU21D;68546;59.142;37.948;2023-03-31T07:25:35;3.47;58.03
79140;HTU21D;68546;59.142;37.948;2023-03-31T07:28:04;3.52;57.98
79140;HTU21D;68546;59.142;37.948;2023-03-31T07:30:31;3.57;57.93
79140;HTU21D;68546;59.142;37.948;2023-03-31T07:32:58;3.62;57.81
79140;HTU21D;68546;59.142;37.948;2023-03-31T07:35:25;3.65;57.90
79140;HTU21D;68546;59.142;37.948;2023-03-31T07:37:52;3.71;57.90
79140;HTU21D;68546;59.142;37.948;2023-03-31T07:40:24;3.76;57.80
79140;HTU21D;68546;59.142;37.948;2023-03-31T07:42:51;3.83;57.81
79140;HTU21D;68546;59.142;37.948;2023-03-31T07:45:19;3.89;57.70
79140;HTU21D;68546;59.142;37.948;2023-03-31T07:47:46;3.93;57.64
79140;HTU21D;68546;59.142;37.948;2023-03-31T07:50:14;4.00;57.53
79140;HTU21D;68546;59.142;37.948;2023-03-31T07:52:41;4.03;57.26
79140;HTU21D;68546;59.142;37.948;2023-03-31T07:55:09;4.06;57.18
79140;HTU21D;68546;59.142;37.948;2023-03-31T07:57:36;4.12;57.11
79140;HTU21D;68546;59.142;37.948;2023-03-31T08:00:06;4.16;56.92
79140;HTU21D;68546;59.142;37.948;2023-03-31T08:02:41;4.19;56.85
79140;HTU21D;68546;59.142;37.948;2023-03-31T08:05:12;4.23;56.74
79140;HTU21D;68546;59.142;37.948;2023-03-31T08:07:41;4.27;56.64
79140;HTU21D;68546;59.142;37.948;2023-03-31T08:10:12;4.31;56.54
79140;HTU21D;68546;59.142;37.948;2023-03-31T08:12:39;4.35;56.46
79140;HTU21D;68546;59.142;37.948;2023-03-31T08:15:06;4.38;56.45
79140;HTU21D;68546;59.142;37.948;2023-03-31T08:17:33;4.44;56.52
79140;HTU21D;68546;59.142;37.948;2023-03-31T08:19:59;4.50;56.42
79140;HTU21D;68546;59.142;37.948;2023-03-31T08:22:26;4.53;56.33
79140;HTU21D;68546;59.142;37.948;2023-03-31T08:24:52;4.59;56.15
79140;HTU21D;68546;59.142;37.948;2023-03-31T08:27:20;4.64;56.07
79140;HTU21D;68546;59.142;37.948;2023-03-31T08:29:47;4.67;55.89
79140;HTU21D;68546;59.142;37.948;2023-03-31T08:32:14;4.72;55.78
79140;HTU21D;68546;59.142;37.948;2023-03-31T08:34:42;4.75;55.54
79140;HTU21D;68546;59.142;37.948;2023-03-31T08:37:09;4.79;55.25
79140;HTU21D;68546;59.142;37.948;2023-03-31T08:39:36;4.83;55.26
79140;HTU21D;68546;59.142;37.948;2023-03-31T08:42:14;4.88;55.00
79140;HTU21D;68546;59.142;37.948;2023-03-31T08:44:52;4.90;54.89
79140;HTU21D;68546;59.142;37.948;2023-03-31T08:47:23;4.93;54.77
79140;HTU21D;68546;59.142;37.948;2023-03-31T08:49:59;4.98;54.66
79140;HTU21D;68546;59.142;37.948;2023-03-31T08:52:52;5.02;54.85
79140;HTU21D;68546;59.142;37.948;2023-03-31T08:55:28;5.06;54.84
79140;HTU21D;68546;59.142;37.948;2023-03-31T08:58:02;5.10;54.84
79140;HTU21D;68546;59.142;37.948;2023-03-31T09:00:39;5.16;54.71
79140;HTU21D;68546;59.142;37.948;2023-03-31T09:03:28;5.17;54.65
79140;HTU21D;68546;59.142;37.948;2023-03-31T09:06:00;5.21;54.30
79140;HTU21D;68546;59.142;37.948;2023-03-31T09:08:37;5.24;54.20
79140;HTU21D;68546;59.142;37.948;2023-03-31T09:11:12;5.28;53.96
79140;HTU21D;68546;59.142;37.948;2023-03-31T09:13:55;5.36;53.84
79140;HTU21D;68546;59.142;37.948;2023-03-31T09:19:02;5.45;53.50
79140;HTU21D;68546;59.142;37.948;2023-03-31T09:21:34;5.48;53.17
79140;HTU21D;68546;59.142;37.948;2023-03-31T09:24:09;5.50;52.95
79140;HTU21D;68546;59.142;37.948;2023-03-31T09:26:52;5.54;52.83
79140;HTU21D;68546;59.142;37.948;2023-03-31T09:32:00;5.59;52.52
79140;HTU21D;68546;59.142;37.948;2023-03-31T09:34:30;5.61;52.43
79140;HTU21D;68546;59.142;37.948;2023-03-31T09:36:58;5.65;52.40
79140;HTU21D;68546;59.142;37.948;2023-03-31T09:39:25;5.69;52.30
79140;HTU21D;68546;59.142;37.948;2023-03-31T09:41:53;5.74;52.14
79140;HTU21D;68546;59.142;37.948;2023-03-31T09:44:44;5.78;52.13
79140;HTU21D;68546;59.142;37.948;2023-03-31T09:49:54;5.82;51.54
79140;HTU21D;68546;59.142;37.948;2023-03-31T09:52:36;5.86;51.34
79140;HTU21D;68546;59.142;37.948;2023-03-31T09:55:22;5.90;51.20
79140;HTU21D;68546;59.142;37.948;2023-03-31T09:57:49;5.92;51.01
79140;HTU21D;68546;59.142;37.948;2023-03-31T10:00:21;5.95;50.80
79140;HTU21D;68546;59.142;37.948;2023-03-31T10:02:48;5.98;50.76
79140;HTU21D;68546;59.142;37.948;2023-03-31T10:05:26;6.04;50.59
79140;HTU21D;68546;59.142;37.948;2023-03-31T10:08:21;6.07;50.75
79140;HTU21D;68546;59.142;37.948;2023-03-31T10:10:50;6.11;50.36
79140;HTU21D;68546;59.142;37.948;2023-03-31T10:13:20;6.15;50.27
79140;HTU21D;68546;59.142;37.948;2023-03-31T10:15:51;6.19;50.21
79140;HTU21D;68546;59.142;37.948;2023-03-31T10:18:19;6.23;50.27
79140;HTU21D;68546;59.142;37.948;2023-03-31T10:20:51;6.29;50.14
79140;HTU21D;68546;59.142;37.948;2023-03-31T10:23:25;6.34;50.02
79140;HTU21D;68546;59.142;37.948;2023-03-31T10:25:52;6.36;49.93
79140;HTU21D;68546;59.142;37.948;2023-03-31T10:28:20;6.39;49.64
79140;HTU21D;68546;59.142;37.948;2023-03-31T10:30:50;6.41;49.11
79140;HTU21D;68546;59.142;37.948;2023-03-31T10:33:19;6.43;49.15
79140;HTU21D;68546;59.142;37.948;2023-03-31T10:35:58;6.46;49.16
79140;HTU21D;68546;59.142;37.948;2023-03-31T10:38:37;6.50;49.39
79140;HTU21D;68546;59.142;37.948;2023-03-31T10:41:08;6.54;49.16
79140;HTU21D;68546;59.142;37.948;2023-03-31T10:43:42;6.55;49.06
79140;HTU21D;68546;59.142;37.948;2023-03-31T10:46:11;6.58;49.07
79140;HTU21D;68546;59.142;37.948;2023-03-31T10:48:39;6.61;49.02
79140;HTU21D;68546;59.142;37.948;2023-03-31T10:51:35;6.66;49.20
79140;HTU21D;68546;59.142;37.948;2023-03-31T10:54:02;6.68;48.89
79140;HTU21D;68546;59.142;37.948;2023-03-31T11:19:50;6.96;48.21
79140;HTU21D;68546;59.142;37.948;2023-03-31T11:42:15;7.11;45.80
79140;HTU21D;68546;59.142;37.948;2023-03-31T11:44:48;7.12;45.77
79140;HTU21D;68546;59.142;37.948;2023-03-31T11:47:27;7.14;45.88
79140;HTU21D;68546;59.142;37.948;2023-03-31T11:50:05;7.16;46.01
79140;HTU21D;68546;59.142;37.948;2023-03-31T11:52:39;7.19;45.88
79140;HTU21D;68546;59.142;37.948;2023-03-31T11:55:16;7.23;45.77
79140;HTU21D;68546;59.142;37.948;2023-03-31T12:00:51;7.25;45.85
79140;HTU21D;68546;59.142;37.948;2023-03-31T12:05:52;7.27;45.12
79140;HTU21D;68546;59.142;37.948;2023-03-31T12:11:23;7.32;44.90
79140;HTU21D;68546;59.142;37.948;2023-03-31T12:21:46;7.41;44.22
79140;HTU21D;68546;59.142;37.948;2023-03-31T12:24:14;7.42;44.16
79140;HTU21D;68546;59.142;37.948;2023-03-31T12:29:33;7.45;44.25
79140;HTU21D;68546;59.142;37.948;2023-03-31T12:32:17;7.47;43.95
79140;HTU21D;68546;59.142;37.948;2023-03-31T12:35:00;7.49;44.14
79140;HTU21D;68546;59.142;37.948;2023-03-31T12:40:26;7.52;43.67
79140;HTU21D;68546;59.142;37.948;2023-03-31T12:46:38;7.55;43.59
79140;HTU21D;68546;59.142;37.948;2023-03-31T12:52:58;7.59;43.32
79140;HTU21D;68546;59.142;37.948;2023-03-31T12:55:37;7.59;42.85
79140;HTU21D;68546;59.142;37.948;2023-03-31T13:09:05;7.68;42.15
79140;HTU21D;68546;59.142;37.948;2023-03-31T13:11:41;7.69;41.97
79140;HTU21D;68546;59.142;37.948;2023-03-31T13:14:22;7.70;41.74
79140;HTU21D;68546;59.142;37.948;2023-03-31T13:16:51;7.70;40.68
79140;HTU21D;68546;59.142;37.948;2023-03-31T13:19:33;7.70;39.81
79140;HTU21D;68546;59.142;37.948;2023-03-31T13:22:03;7.71;39.78
79140;HTU21D;68546;59.142;37.948;2023-03-31T13:24:32;7.70;39.99
79140;HTU21D;68546;59.142;37.948;2023-03-31T13:27:29;7.73;40.49
79140;HTU21D;68546;59.142;37.948;2023-03-31T13:29:59;7.72;40.09
79140;HTU21D;68546;59.142;37.948;2023-03-31T13:32:27;7.72;39.89
79140;HTU21D;68546;59.142;37.948;2023-03-31T13:35:26;7.73;40.29
79140;HTU21D;68546;59.142;37.948;2023-03-31T13:39:03;7.74;40.08
79140;HTU21D;68546;59.142;37.948;2023-03-31T13:41:15;7.74;39.61
79140;HTU21D;68546;59.142;37.948;2023-03-31T14:02:56;7.77;38.96
79140;HTU21D;68546;59.142;37.948;2023-03-31T14:08:42;7.78;38.63
79140;HTU21D;68546;59.142;37.948;2023-03-31T14:11:21;7.78;38.17
79140;HTU21D;68546;59.142;37.948;2023-03-31T14:14:05;7.78;38.20
79140;HTU21D;68546;59.142;37.948;2023-03-31T14:16:51;7.76;38.11
79140;HTU21D;68546;59.142;37.948;2023-03-31T14:30:37;7.71;37.63
79140;HTU21D;68546;59.142;37.948;2023-03-31T14:33:41;7.70;37.53
79140;HTU21D;68546;59.142;37.948;2023-03-31T14:36:34;7.67;37.17
79140;HTU21D;68546;59.142;37.948;2023-03-31T14:39:09;7.65;36.97
79140;HTU21D;68546;59.142;37.948;2023-03-31T14:41:36;7.63;36.69
79140;HTU21D;68546;59.142;37.948;2023-03-31T14:44:06;7.62;36.48
79140;HTU21D;68546;59.142;37.948;2023-03-31T14:46:39;7.61;36.53
79140;HTU21D;68546;59.142;37.948;2023-03-31T14:49:33;7.61;36.72
79140;HTU21D;68546;59.142;37.948;2023-03-31T14:52:11;7.58;36.24
79140;HTU21D;68546;59.142;37.948;2023-03-31T14:54:39;7.57;36.30
79140;HTU21D;68546;59.142;37.948;2023-03-31T14:57:06;7.55;35.99
79140;HTU21D;68546;59.142;37.948;2023-03-31T14:59:34;7.53;35.93
79140;HTU21D;68546;59.142;37.948;2023-03-31T15:02:03;7.49;35.91
79140;HTU21D;68546;59.142;37.948;2023-03-31T15:04:36;7.48;35.82
79140;HTU21D;68546;59.142;37.948;2023-03-31T15:07:10;7.46;35.69
79140;HTU21D;68546;59.142;37.948;2023-03-31T15:09:37;7.45;35.69
79140;HTU21D;68546;59.142;37.948;2023-03-31T15:12:14;7.43;35.69
79140;HTU21D;68546;59.142;37.948;2023-03-31T15:14:45;7.40;35.60
79140;HTU21D;68546;59.142;37.948;2023-03-31T15:19:45;7.34;35.62
79140;HTU21D;68546;59.142;37.948;2023-03-31T15:22:16;7.31;35.47
79140;HTU21D;68546;59.142;37.948;2023-03-31T15:24:46;7.30;35.60
79140;HTU21D;68546;59.142;37.948;2023-03-31T15:27:29;7.28;35.25
79140;HTU21D;68546;59.142;37.948;2023-03-31T15:29:58;7.26;35.36
79140;HTU21D;68546;59.142;37.948;2023-03-31T15:32:34;7.23;35.22
79140;HTU21D;68546;59.142;37.948;2023-03-31T15:35:01;7.19;35.21
79140;HTU21D;68546;59.142;37.948;2023-03-31T15:37:41;7.16;35.13
79140;HTU21D;68546;59.142;37.948;2023-03-31T15:40:22;7.14;35.19
79140;HTU21D;68546;59.142;37.948;2023-03-31T15:42:56;7.11;35.10
79140;HTU21D;68546;59.142;37.948;2023-03-31T15:45:37;7.08;35.24
79140;HTU21D;68546;59.142;37.948;2023-03-31T15:50:47;7.00;35.06
79140;HTU21D;68546;59.142;37.948;2023-03-31T15:53:36;6.97;35.23
79140;HTU21D;68546;59.142;37.948;2023-03-31T15:56:03;6.93;35.11
79140;HTU21D;68546;59.142;37.948;2023-03-31T15:58:53;6.89;35.35
79140;HTU21D;68546;59.142;37.948;2023-03-31T16:01:21;6.84;35.18
79140;HTU21D;68546;59.142;37.948;2023-03-31T16:03:51;6.82;35.15
79140;HTU21D;68546;59.142;37.948;2023-03-31T16:06:23;6.78;35.21
79140;HTU21D;68546;59.142;37.948;2023-03-31T16:09:05;6.73;35.21
79140;HTU21D;68546;59.142;37.948;2023-03-31T16:11:47;6.69;35.31
79140;HTU21D;68546;59.142;37.948;2023-03-31T16:14:25;6.65;35.45
79140;HTU21D;68546;59.142;37.948;2023-03-31T16:17:03;6.60;35.53
79140;HTU21D;68546;59.142;37.948;2023-03-31T16:19:42;6.57;35.60
79140;HTU21D;68546;59.142;37.948;2023-03-31T16:22:15;6.54;35.49
79140;HTU21D;68546;59.142;37.948;2023-03-31T16:24:43;6.51;35.58
79140;HTU21D;68546;59.142;37.948;2023-03-31T16:27:10;6.45;35.58
79140;HTU21D;68546;59.142;37.948;2023-03-31T16:29:38;6.42;35.63
79140;HTU21D;68546;59.142;37.948;2023-03-31T16:37:17;6.31;35.83
79140;HTU21D;68546;59.142;37.948;2023-03-31T16:39:44;6.28;35.91
79140;HTU21D;68546;59.142;37.948;2023-03-31T16:42:11;6.24;35.98
79140;HTU21D;68546;59.142;37.948;2023-03-31T16:44:39;6.21;35.95
79140;HTU21D;68546;59.142;37.948;2023-03-31T16:47:07;6.17;36.08
79140;HTU21D;68546;59.142;37.948;2023-03-31T16:49:33;6.15;36.09
79140;HTU21D;68546;59.142;37.948;2023-03-31T16:52:01;6.12;36.25
79140;HTU21D;68546;59.142;37.948;2023-03-31T16:54:27;6.10;36.32
79140;HTU21D;68546;59.142;37.948;2023-03-31T16:56:54;6.07;36.44
79140;HTU21D;68546;59.142;37.948;2023-03-31T16:59:21;6.04;36.40
79140;HTU21D;68546;59.142;37.948;2023-03-31T17:01:49;6.01;36.41
79140;HTU21D;68546;59.142;37.948;2023-03-31T17:04:17;5.99;36.46
79140;HTU21D;68546;59.142;37.948;2023-03-31T17:06:45;5.96;36.56
79140;HTU21D;68546;59.142;37.948;2023-03-31T17:09:12;5.93;36.60
79140;HTU21D;68546;59.142;37.948;2023-03-31T17:11:39;5.90;36.78
79140;HTU21D;68546;59.142;37.948;2023-03-31T17:14:06;5.86;36.90
79140;HTU21D;68546;59.142;37.948;2023-03-31T17:16:32;5.82;36.84
79140;HTU21D;68546;59.142;37.948;2023-03-31T17:19:00;5.78;36.87
79140;HTU21D;68546;59.142;37.948;2023-03-31T17:21:28;5.75;36.98
79140;HTU21D;68546;59.142;37.948;2023-03-31T17:23:56;5.70;37.01
79140;HTU21D;68546;59.142;37.948;2023-03-31T17:26:23;5.65;37.11
79140;HTU21D;68546;59.142;37.948;2023-03-31T17:28:50;5.62;37.11
79140;HTU21D;68546;59.142;37.948;2023-03-31T17:31:19;5.59;37.24
79140;HTU21D;68546;59.142;37.948;2023-03-31T17:33:46;5.54;37.23
79140;HTU21D;68546;59.142;37.948;2023-03-31T17:36:13;5.51;37.32
79140;HTU21D;68546;59.142;37.948;2023-03-31T17:38:41;5.49;37.46
79140;HTU21D;68546;59.142;37.948;2023-03-31T17:41:10;5.45;37.66
79140;HTU21D;68546;59.142;37.948;2023-03-31T17:43:38;5.39;37.79
79140;HTU21D;68546;59.142;37.948;2023-03-31T17:46:06;5.36;37.97
79140;HTU21D;68546;59.142;37.948;2023-03-31T17:48:33;5.31;38.16
79140;HTU21D;68546;59.142;37.948;2023-03-31T17:51:08;5.27;38.43
79140;HTU21D;68546;59.142;37.948;2023-03-31T17:53:34;5.22;38.62
79140;HTU21D;68546;59.142;37.948;2023-03-31T17:56:03;5.17;38.86
79140;HTU21D;68546;59.142;37.948;2023-03-31T17:58:30;5.12;39.10
79140;HTU21D;68546;59.142;37.948;2023-03-31T18:00:57;5.09;39.34
79140;HTU21D;68546;59.142;37.948;2023-03-31T18:03:27;5.05;39.62
79140;HTU21D;68546;59.142;37.948;2023-03-31T18:05:53;5.01;39.84
79140;HTU21D;68546;59.142;37.948;2023-03-31T18:08:20;4.96;40.10
79140;HTU21D;68546;59.142;37.948;2023-03-31T18:10:47;4.93;40.33
79140;HTU21D;68546;59.142;37.948;2023-03-31T18:13:14;4.90;40.64
79140;HTU21D;68546;59.142;37.948;2023-03-31T18:15:47;4.88;40.96
79140;HTU21D;68546;59.142;37.948;2023-03-31T18:18:16;4.82;41.10
79140;HTU21D;68546;59.142;37.948;2023-03-31T18:20:50;4.81;41.40
79140;HTU21D;68546;59.142;37.948;2023-03-31T18:23:18;4.76;41.55
79140;HTU21D;68546;59.142;37.948;2023-03-31T18:25:45;4.72;41.77
79140;HTU21D;68546;59.142;37.948;2023-03-31T18:28:12;4.68;42.07
79140;HTU21D;68546;59.142;37.948;2023-03-31T18:30:39;4.64;42.20
79140;HTU21D;68546;59.142;37.948;2023-03-31T18:33:06;4.61;42.52
79140;HTU21D;68546;59.142;37.948;2023-03-31T18:35:32;4.56;42.68
79140;HTU21D;68546;59.142;37.948;2023-03-31T18:37:58;4.53;42.90
79140;HTU21D;68546;59.142;37.948;2023-03-31T18:40:25;4.49;43.06
79140;HTU21D;68546;59.142;37.948;2023-03-31T18:42:52;4.46;43.20
79140;HTU21D;68546;59.142;37.948;2023-03-31T18:45:18;4.42;43.51
79140;HTU21D;68546;59.142;37.948;2023-03-31T18:47:45;4.38;43.64
79140;HTU21D;68546;59.142;37.948;2023-03-31T18:50:11;4.34;43.81
79140;HTU21D;68546;59.142;37.948;2023-03-31T18:52:40;4.31;43.92
79140;HTU21D;68546;59.142;37.948;2023-03-31T18:55:07;4.28;44.38
79140;HTU21D;68546;59.142;37.948;2023-03-31T18:57:34;4.24;44.48
79140;HTU21D;68546;59.142;37.948;2023-03-31T19:00:01;4.21;44.63
79140;HTU21D;68546;59.142;37.948;2023-03-31T19:02:28;4.16;44.83
79140;HTU21D;68546;59.142;37.948;2023-03-31T19:04:55;4.14;45.06
79140;HTU21D;68546;59.142;37.948;2023-03-31T19:07:22;4.09;45.20
79140;HTU21D;68546;59.142;37.948;2023-03-31T19:09:48;4.06;45.22
79140;HTU21D;68546;59.142;37.948;2023-03-31T19:12:15;4.02;45.41
79140;HTU21D;68546;59.142;37.948;2023-03-31T19:14:41;3.98;45.54
79140;HTU21D;68546;59.142;37.948;2023-03-31T19:17:09;3.92;45.77
79140;HTU21D;68546;59.142;37.948;2023-03-31T19:19:36;3.91;45.93
79140;HTU21D;68546;59.142;37.948;2023-03-31T19:22:03;3.87;46.14
79140;HTU21D;68546;59.142;37.948;2023-03-31T19:24:30;3.83;46.22
79140;HTU21D;68546;59.142;37.948;2023-03-31T19:26:57;3.80;46.40
79140;HTU21D;68546;59.142;37.948;2023-03-31T19:29:25;3.78;46.70
79140;HTU21D;68546;59.142;37.948;2023-03-31T19:31:53;3.74;46.73
79140;HTU21D;68546;59.142;37.948;2023-03-31T19:34:19;3.72;46.90
79140;HTU21D;68546;59.142;37.948;2023-03-31T19:36:46;3.70;47.00
79140;HTU21D;68546;59.142;37.948;2023-03-31T19:39:13;3.67;47.33
79140;HTU21D;68546;59.142;37.948;2023-03-31T19:41:40;3.63;47.45
79140;HTU21D;68546;59.142;37.948;2023-03-31T19:44:07;3.62;47.54
79140;HTU21D;68546;59.142;37.948;2023-03-31T19:46:33;3.58;48.34
79140;HTU21D;68546;59.142;37.948;2023-03-31T19:49:01;3.56;48.14
79140;HTU21D;68546;59.142;37.948;2023-03-31T19:51:28;3.52;48.22
79140;HTU21D;68546;59.142;37.948;2023-03-31T19:53:55;3.49;48.27
79140;HTU21D;68546;59.142;37.948;2023-03-31T19:56:22;3.47;48.37
79140;HTU21D;68546;59.142;37.948;2023-03-31T19:58:51;3.43;48.50
79140;HTU21D;68546;59.142;37.948;2023-03-31T20:01:22;3.40;48.71
79140;HTU21D;68546;59.142;37.948;2023-03-31T20:03:52;3.35;48.81
79140;HTU21D;68546;59.142;37.948;2023-03-31T20:06:22;3.31;48.98
79140;HTU21D;68546;59.142;37.948;2023-03-31T20:08:54;3.27;49.07
79140;HTU21D;68546;59.142;37.948;2023-03-31T20:11:20;3.25;49.35
79140;HTU21D;68546;59.142;37.948;2023-03-31T20:13:47;3.19;49.76
79140;HTU21D;68546;59.142;37.948;2023-03-31T20:16:17;3.16;49.97
79140;HTU21D;68546;59.142;37.948;2023-03-31T20:18:44;3.13;50.30
79140;HTU21D;68546;59.142;37.948;2023-03-31T20:21:16;3.06;50.27
79140;HTU21D;68546;59.142;37.948;2023-03-31T20:23:44;3.02;50.32
79140;HTU21D;68546;59.142;37.948;2023-03-31T20:26:14;2.97;50.37
79140;HTU21D;68546;59.142;37.948;2023-03-31T20:28:43;2.93;50.58
79140;HTU21D;68546;59.142;37.948;2023-03-31T20:31:12;2.89;50.88
79140;HTU21D;68546;59.142;37.948;2023-03-31T20:33:39;2.86;51.01
79140;HTU21D;68546;59.142;37.948;2023-03-31T20:36:08;2.83;51.41
79140;HTU21D;68546;59.142;37.948;2023-03-31T20:38:42;2.79;51.73
79140;HTU21D;68546;59.142;37.948;2023-03-31T20:41:19;2.74;51.53
79140;HTU21D;68546;59.142;37.948;2023-03-31T20:43:46;2.69;51.55
79140;HTU21D;68546;59.142;37.948;2023-03-31T20:49:54;2.59;51.59
79140;HTU21D;68546;59.142;37.948;2023-03-31T20:52:20;2.55;51.81
79140;HTU21D;68546;59.142;37.948;2023-03-31T20:54:48;2.53;52.05
79140;HTU21D;68546;59.142;37.948;2023-03-31T20:57:14;2.49;52.12
79140;HTU21D;68546;59.142;37.948;2023-03-31T20:59:40;2.46;52.21
79140;HTU21D;68546;59.142;37.948;2023-03-31T21:02:10;2.42;52.33
79140;HTU21D;68546;59.142;37.948;2023-03-31T21:04:36;2.41;52.41
79140;HTU21D;68546;59.142;37.948;2023-03-31T21:07:03;2.37;52.59
79140;HTU21D;68546;59.142;37.948;2023-03-31T21:09:29;2.36;53.96
79140;HTU21D;68546;59.142;37.948;2023-03-31T21:11:56;2.31;53.56
79140;HTU21D;68546;59.142;37.948;2023-03-31T21:14:23;2.27;53.62
79140;HTU21D;68546;59.142;37.948;2023-03-31T21:16:49;2.23;53.54
79140;HTU21D;68546;59.142;37.948;2023-03-31T21:19:16;2.19;53.50
79140;HTU21D;68546;59.142;37.948;2023-03-31T21:21:43;2.14;53.82
79140;HTU21D;68546;59.142;37.948;2023-03-31T21:24:11;2.11;54.01
79140;HTU21D;68546;59.142;37.948;2023-03-31T21:26:38;2.06;53.95
79140;HTU21D;68546;59.142;37.948;2023-03-31T21:29:05;2.03;54.23
79140;HTU21D;68546;59.142;37.948;2023-03-31T21:31:33;2.00;54.45
79140;HTU21D;68546;59.142;37.948;2023-03-31T21:33:59;1.97;54.46
79140;HTU21D;68546;59.142;37.948;2023-03-31T21:36:27;1.95;54.59
79140;HTU21D;68546;59.142;37.948;2023-03-31T21:38:54;1.92;54.63
79140;HTU21D;68546;59.142;37.948;2023-03-31T21:41:24;1.88;54.68
79140;HTU21D;68546;59.142;37.948;2023-03-31T21:43:52;1.87;54.69
79140;HTU21D;68546;59.142;37.948;2023-03-31T21:46:22;1.85;54.89
79140;HTU21D;68546;59.142;37.948;2023-03-31T21:48:49;1.82;54.91
79140;HTU21D;68546;59.142;37.948;2023-03-31T21:51:17;1.82;55.08
79140;HTU21D;68546;59.142;37.948;2023-03-31T21:53:43;1.80;55.13
79140;HTU21D;68546;59.142;37.948;2023-03-31T21:56:10;1.79;55.16
79140;HTU21D;68546;59.142;37.948;2023-03-31T21:58:36;1.79;55.29
79140;HTU21D;68546;59.142;37.948;2023-03-31T22:01:03;1.78;55.45
79140;HTU21D;68546;59.142;37.948;2023-03-31T22:03:31;1.77;55.50
79140;HTU21D;68546;59.142;37.948;2023-03-31T22:06:04;1.77;55.62
79140;HTU21D;68546;59.142;37.948;2023-03-31T22:08:32;1.76;55.68
79140;HTU21D;68546;59.142;37.948;2023-03-31T22:11:02;1.72;55.75
79140;HTU21D;68546;59.142;37.948;2023-03-31T22:13:29;1.72;55.82
79140;HTU21D;68546;59.142;37.948;2023-03-31T22:15:56;1.71;55.94
79140;HTU21D;68546;59.142;37.948;2023-03-31T22:18:25;1.71;55.97
79140;HTU21D;68546;59.142;37.948;2023-03-31T22:20:51;1.68;56.01
79140;HTU21D;68546;59.142;37.948;2023-03-31T22:23:22;1.66;56.08
79140;HTU21D;68546;59.142;37.948;2023-03-31T22:25:48;1.65;56.17
79140;HTU21D;68546;59.142;37.948;2023-03-31T22:28:16;1.62;56.29
79140;HTU21D;68546;59.142;37.948;2023-03-31T22:30:43;1.61;56.34
79140;HTU21D;68546;59.142;37.948;2023-03-31T22:33:09;1.58;56.45
79140;HTU21D;68546;59.142;37.948;2023-03-31T22:35:36;1.56;56.59
79140;HTU21D;68546;59.142;37.948;2023-03-31T22:38:02;1.55;56.58
79140;HTU21D;68546;59.142;37.948;2023-03-31T22:40:29;1.52;56.64
79140;HTU21D;68546;59.142;37.948;2023-03-31T22:42:55;1.49;56.74
79140;HTU21D;68546;59.142;37.948;2023-03-31T22:45:23;1.47;56.77
79140;HTU21D;68546;59.142;37.948;2023-03-31T22:47:50;1.43;56.81
79140;HTU21D;68546;59.142;37.948;2023-03-31T22:50:17;1.40;57.07
79140;HTU21D;68546;59.142;37.948;2023-03-31T22:52:44;1.39;57.16
79140;HTU21D;68546;59.142;37.948;2023-03-31T22:55:11;1.38;57.25
79140;HTU21D;68546;59.142;37.948;2023-03-31T22:57:37;1.35;57.32
79140;HTU21D;68546;59.142;37.948;2023-03-31T23:00:05;1.34;57.48
79140;HTU21D;68546;59.142;37.948;2023-03-31T23:02:31;1.33;57.53
79140;HTU21D;68546;59.142;37.948;2023-03-31T23:04:58;1.34;57.58
79140;HTU21D;68546;59.142;37.948;2023-03-31T23:07:24;1.32;57.74
79140;HTU21D;68546;59.142;37.948;2023-03-31T23:09:51;1.31;57.76
79140;HTU21D;68546;59.142;37.948;2023-03-31T23:12:17;1.31;57.95
79140;HTU21D;68546;59.142;37.948;2023-03-31T23:14:44;1.28;58.46
79140;HTU21D;68546;59.142;37.948;2023-03-31T23:17:13;1.28;58.76
79140;HTU21D;68546;59.142;37.948;2023-03-31T23:19:39;1.26;58.57
79140;HTU21D;68546;59.142;37.948;2023-03-31T23:22:09;1.23;58.64
79140;HTU21D;68546;59.142;37.948;2023-03-31T23:24:35;1.20;58.58
79140;HTU21D;68546;59.142;37.948;2023-03-31T23:27:02;1.19;58.63
79140;HTU21D;68546;59.142;37.948;2023-03-31T23:29:29;1.16;58.64
79140;HTU21D;68546;59.142;37.948;2023-03-31T23:31:56;1.13;58.67
79140;HTU21D;68546;59.142;37.948;2023-03-31T23:34:23;1.12;58.77
79140;HTU21D;68546;59.142;37.948;2023-03-31T23:36:49;1.11;58.99
79140;HTU21D;68546;59.142;37.948;2023-03-31T23:39:17;1.10;59.05
79140;HTU21D;68546;59.142;37.948;2023-03-31T23:41:44;1.12;59.25
79140;HTU21D;68546;59.142;37.948;2023-03-31T23:44:10;1.10;59.44
79140;HTU21D;68546;59.142;37.948;2023-03-31T23:46:37;1.09;59.35
79140;HTU21D;68546;59.142;37.948;2023-03-31T23:49:04;1.08;59.51
79140;HTU21D;68546;59.142;37.948;2023-03-31T23:51:32;1.06;59.48
79140;HTU21D;68546;59.142;37.948;2023-03-31T23:53:58;1.05;59.51
79140;HTU21D;68546;59.142;37.948;2023-03-31T23:56:25;1.03;59.45
79140;HTU21D;68546;59.142;37.948;2023-03-31T23:58:53;1.01;59.51
